Time;durP1;ratioP1;P1;durP2;ratioP2;P2;SDS_P1;SDS_P2;PMS_P1;PMS_P2;Temp;Humidity;BMP_temperature;BMP_pressure;BME280_temperature;BME280_humidity;BME280_pressure;Samples;Min_cycle;Max_cycle;Signal;HPM_P1;HPM_P2
2022/10/12 00:00:19;;;;;;;9.48;3.20;;;10.50;99.90;;;;;;5051720;28;20735;-67
2022/10/12 00:02:47;;;;;;;8.73;2.88;;;10.40;99.90;;;;;;5049203;28;20664;-67
2022/10/12 00:05:15;;;;;;;9.00;2.40;;;10.30;99.90;;;;;;5052046;28;20570;-67
2022/10/12 00:07:42;;;;;;;9.63;2.97;;;10.40;99.90;;;;;;5039307;28;20197;-67
2022/10/12 00:10:12;;;;;;;8.90;2.88;;;10.30;99.90;;;;;;5032030;28;20212;-67
2022/10/12 00:12:40;;;;;;;5.40;2.55;;;10.20;99.90;;;;;;5032381;28;20205;-66
2022/10/12 00:15:08;;;;;;;16.20;4.00;;;10.20;99.90;;;;;;5030431;28;20656;-66
2022/10/12 00:17:36;;;;;;;5.85;2.60;;;10.20;99.90;;;;;;5040131;28;20575;-66
2022/10/12 00:20:06;;;;;;;12.40;3.65;;;10.10;99.90;;;;;;5051686;28;20210;-65
2022/10/12 00:22:36;;;;;;;6.47;3.20;;;10.10;99.90;;;;;;5052703;28;20231;-65
2022/10/12 00:25:05;;;;;;;9.60;2.60;;;10.10;99.90;;;;;;5032260;28;20213;-65
2022/10/12 00:27:34;;;;;;;5.25;3.35;;;10.00;99.90;;;;;;5032598;28;20208;-65
2022/10/12 00:30:02;;;;;;;5.88;2.65;;;10.00;99.90;;;;;;5031922;28;20672;-66
2022/10/12 00:32:30;;;;;;;5.32;2.55;;;10.00;99.90;;;;;;5052797;28;20607;-66
2022/10/12 00:34:58;;;;;;;7.43;2.80;;;9.90;99.90;;;;;;5051665;28;20309;-70
2022/10/12 00:37:26;;;;;;;7.25;2.72;;;9.90;99.90;;;;;;5052085;28;20223;-65
2022/10/12 00:39:54;;;;;;;6.40;2.83;;;9.80;99.90;;;;;;5052266;28;20583;-65
2022/10/12 00:42:22;;;;;;;5.22;2.72;;;9.80;99.90;;;;;;5050384;28;20217;-65
2022/10/12 00:44:52;;;;;;;5.72;3.10;;;9.80;99.90;;;;;;5049733;28;20212;-65
2022/10/12 00:47:25;;;;;;;7.65;3.10;;;9.80;99.90;;;;;;5052211;28;20215;-65
2022/10/12 00:49:58;;;;;;;6.20;3.20;;;9.70;99.90;;;;;;5052693;28;20196;-65
2022/10/12 00:52:31;;;;;;;7.20;3.08;;;9.70;99.90;;;;;;5052832;28;20196;-65
2022/10/12 00:55:00;;;;;;;8.77;4.25;;;9.70;99.90;;;;;;5046710;28;20204;-65
2022/10/12 00:57:29;;;;;;;5.15;2.50;;;9.70;99.90;;;;;;5052671;28;20231;-65
2022/10/12 01:00:01;;;;;;;10.38;2.90;;;9.70;99.90;;;;;;5051588;28;20201;-65
2022/10/12 01:02:31;;;;;;;4.30;2.35;;;9.80;99.90;;;;;;5060264;28;20295;-68
2022/10/12 01:05:00;;;;;;;5.57;2.90;;;9.80;99.90;;;;;;5060194;28;20202;-68
2022/10/12 01:07:28;;;;;;;6.22;2.88;;;9.80;99.90;;;;;;5059553;28;20192;-68
2022/10/12 01:09:56;;;;;;;9.02;2.72;;;9.80;99.90;;;;;;5059108;28;20207;-68
2022/10/12 01:12:26;;;;;;;6.40;2.72;;;9.80;99.90;;;;;;5059648;28;20283;-68
2022/10/12 01:14:54;;;;;;;4.78;2.63;;;9.80;99.90;;;;;;5057749;28;20284;-68
2022/10/12 01:17:34;;;;;;;7.13;3.13;;;9.80;99.90;;;;;;5037018;28;20664;-68
2022/10/12 01:20:36;;;;;;;5.13;2.90;;;9.80;99.90;;;;;;5036382;28;20272;-68
2022/10/12 01:23:45;;;;;;;5.07;2.45;;;9.80;99.90;;;;;;5037379;28;20224;-68
2022/10/12 01:26:49;;;;;;;6.95;2.60;;;9.80;99.90;;;;;;5040667;28;20212;-68
2022/10/12 01:29:39;;;;;;;7.25;2.80;;;9.80;99.90;;;;;;5034937;28;20207;-68
2022/10/12 01:32:17;;;;;;;8.40;2.80;;;9.80;99.90;;;;;;5043801;28;20200;-68
2022/10/12 01:34:52;;;;;;;6.43;3.15;;;9.80;99.90;;;;;;5061838;28;20566;-68
2022/10/12 01:37:28;;;;;;;8.40;2.90;;;9.70;99.90;;;;;;5063103;28;20809;-67
2022/10/12 01:39:59;;;;;;;10.00;2.90;;;9.70;99.90;;;;;;5063105;28;20260;-67
2022/10/12 01:42:30;;;;;;;4.60;2.70;;;9.60;99.90;;;;;;5064017;28;20197;-67
2022/10/12 01:45:02;;;;;;;6.85;2.60;;;9.70;99.90;;;;;;5065002;28;20212;-67
2022/10/12 01:47:32;;;;;;;5.43;2.42;;;9.70;99.90;;;;;;5062519;28;20267;-65
2022/10/12 01:50:02;;;;;;;6.63;3.63;;;9.70;99.90;;;;;;5051566;28;20201;-64
2022/10/12 01:52:31;;;;;;;8.77;3.00;;;9.70;99.90;;;;;;5050621;28;20203;-65
2022/10/12 01:55:34;;;;;;;11.48;3.17;;;9.60;99.90;;;;;;5050877;28;20204;-65
2022/10/12 01:58:16;;;;;;;9.18;3.20;;;9.60;99.90;;;;;;5050586;28;20224;-64
2022/10/12 02:00:53;;;;;;;10.05;3.40;;;9.60;99.90;;;;;;5050814;28;20235;-65
2022/10/12 02:03:28;;;;;;;6.88;2.90;;;9.60;99.90;;;;;;5050545;28;20207;-64
2022/10/12 02:06:02;;;;;;;7.63;3.25;;;9.70;99.90;;;;;;5050604;28;20188;-64
2022/10/12 02:08:34;;;;;;;6.65;2.75;;;9.60;99.90;;;;;;5050893;28;20195;-64
2022/10/12 02:11:06;;;;;;;13.32;3.30;;;9.60;99.90;;;;;;5050734;28;20200;-65
2022/10/12 02:13:38;;;;;;;7.30;3.72;;;9.60;99.90;;;;;;5051555;28;20189;-64
2022/10/12 02:16:10;;;;;;;5.78;2.58;;;9.60;99.90;;;;;;5050436;28;20563;-65
2022/10/12 02:18:44;;;;;;;9.02;2.70;;;9.50;99.90;;;;;;5052781;28;20196;-64
2022/10/12 02:21:16;;;;;;;8.90;2.80;;;9.50;99.90;;;;;;5054518;28;20207;-64
2022/10/12 02:23:46;;;;;;;9.95;2.80;;;9.40;99.90;;;;;;5054526;28;20200;-64
2022/10/12 02:26:15;;;;;;;5.70;2.50;;;9.40;99.90;;;;;;5054491;28;20193;-65
2022/10/12 02:28:45;;;;;;;6.97;3.53;;;9.40;99.90;;;;;;5055092;28;20197;-64
2022/10/12 02:31:19;;;;;;;5.93;2.97;;;9.40;99.90;;;;;;5054809;28;20197;-64
2022/10/12 02:33:57;;;;;;;7.22;3.35;;;9.40;99.90;;;;;;5054759;28;20199;-64
2022/10/12 02:36:32;;;;;;;5.20;2.70;;;9.40;99.90;;;;;;5054051;28;20224;-64
2022/10/12 02:39:04;;;;;;;13.90;3.33;;;9.40;99.90;;;;;;5054162;28;20200;-64
2022/10/12 02:41:37;;;;;;;9.70;3.53;;;9.40;99.90;;;;;;5053507;28;20192;-64
2022/10/12 02:44:10;;;;;;;4.43;3.15;;;9.30;99.90;;;;;;5054402;28;20216;-64
2022/10/12 02:46:40;;;;;;;4.90;3.60;;;9.30;99.90;;;;;;5054506;28;20196;-64
2022/10/12 02:49:13;;;;;;;7.95;3.38;;;9.40;99.90;;;;;;5053072;28;20199;-64
2022/10/12 02:51:43;;;;;;;8.65;2.90;;;9.30;99.90;;;;;;5053888;28;20181;-64
2022/10/12 02:54:13;;;;;;;10.75;3.53;;;9.40;99.90;;;;;;5049213;28;20190;-65
2022/10/12 02:56:44;;;;;;;10.68;3.60;;;9.40;99.90;;;;;;5054475;28;20220;-64
2022/10/12 02:59:12;;;;;;;4.38;2.70;;;9.40;99.90;;;;;;5053914;28;20189;-64
2022/10/12 03:01:40;;;;;;;7.38;2.92;;;9.50;99.90;;;;;;5065853;28;20211;-64
2022/10/12 03:04:08;;;;;;;4.93;3.13;;;9.50;99.90;;;;;;5053813;28;20585;-64
2022/10/12 03:06:38;;;;;;;10.38;3.70;;;9.50;99.90;;;;;;5054087;28;20216;-64
2022/10/12 03:09:06;;;;;;;3.58;2.55;;;9.50;99.90;;;;;;5053263;28;20247;-64
2022/10/12 03:11:34;;;;;;;4.97;2.67;;;9.50;99.90;;;;;;5054266;28;20208;-65
2022/10/12 03:14:02;;;;;;;8.18;2.72;;;9.50;99.90;;;;;;5053077;28;20567;-64
2022/10/12 03:16:30;;;;;;;11.63;3.47;;;9.50;99.90;;;;;;5054203;28;20200;-64
2022/10/12 03:18:58;;;;;;;9.23;3.72;;;9.50;99.90;;;;;;5052869;28;20254;-64
2022/10/12 03:21:26;;;;;;;4.85;3.20;;;9.50;99.90;;;;;;5053069;28;20204;-64
2022/10/12 03:23:55;;;;;;;8.38;3.13;;;9.50;99.90;;;;;;5053474;28;20583;-64
2022/10/12 03:26:23;;;;;;;5.00;3.15;;;9.40;99.90;;;;;;5053939;28;20204;-64
2022/10/12 03:28:51;;;;;;;4.45;2.95;;;9.30;99.90;;;;;;5051782;28;20575;-64
2022/10/12 03:31:19;;;;;;;9.70;3.13;;;9.30;99.90;;;;;;5053572;28;20204;-65
2022/10/12 03:33:47;;;;;;;6.88;3.30;;;9.30;99.90;;;;;;5052715;28;20539;-64
2022/10/12 03:36:15;;;;;;;5.07;3.05;;;9.30;99.90;;;;;;5053072;28;20228;-64
2022/10/12 03:38:43;;;;;;;8.73;2.97;;;9.40;99.90;;;;;;5052395;28;20209;-64
2022/10/12 03:41:12;;;;;;;10.63;3.35;;;9.40;99.90;;;;;;5053438;28;20204;-64
2022/10/12 03:43:40;;;;;;;7.93;3.60;;;9.40;99.90;;;;;;5051547;28;20224;-64
2022/10/12 03:46:08;;;;;;;8.05;3.20;;;9.40;99.90;;;;;;5053418;28;20243;-64
2022/10/12 03:48:36;;;;;;;7.28;3.30;;;9.40;99.90;;;;;;5052769;28;20656;-64
2022/10/12 03:51:04;;;;;;;13.13;3.38;;;9.50;99.90;;;;;;5053463;28;20647;-64
2022/10/12 03:53:32;;;;;;;4.63;3.20;;;9.50;99.90;;;;;;5052431;28;20200;-64
2022/10/12 03:56:00;;;;;;;8.75;3.35;;;9.50;99.90;;;;;;5053214;28;20207;-64
2022/10/12 03:58:30;;;;;;;9.70;3.70;;;9.50;99.90;;;;;;5052633;28;20240;-64
2022/10/12 04:00:58;;;;;;;8.50;3.38;;;9.50;99.90;;;;;;5053507;28;20215;-64
2022/10/12 04:03:26;;;;;;;8.13;2.90;;;9.50;99.90;;;;;;5052853;28;20565;-64
2022/10/12 04:05:54;;;;;;;10.57;3.65;;;9.60;99.90;;;;;;5053252;28;20208;-64
2022/10/12 04:08:23;;;;;;;6.07;2.90;;;9.50;99.90;;;;;;5052783;28;20211;-64
2022/10/12 04:10:51;;;;;;;11.75;3.65;;;9.50;99.90;;;;;;5053364;28;20204;-67
2022/10/12 04:13:21;;;;;;;9.77;3.47;;;9.60;99.90;;;;;;5052308;28;20208;-67
2022/10/12 04:15:50;;;;;;;9.05;3.90;;;9.60;99.90;;;;;;5053084;28;20201;-67
2022/10/12 04:18:18;;;;;;;5.65;3.17;;;9.60;99.90;;;;;;5051369;28;20204;-67
2022/10/12 04:20:48;;;;;;;12.13;3.45;;;9.60;99.90;;;;;;5052229;28;20314;-67
2022/10/12 04:23:16;;;;;;;6.65;3.83;;;9.60;99.90;;;;;;5051561;28;20212;-67
2022/10/12 04:25:44;;;;;;;10.57;3.45;;;9.50;99.90;;;;;;5052101;28;20231;-67
2022/10/12 04:28:12;;;;;;;4.70;3.05;;;9.60;99.90;;;;;;5051763;28;20204;-67
2022/10/12 04:30:40;;;;;;;8.30;2.97;;;9.50;99.90;;;;;;5052024;28;20208;-67
2022/10/12 04:33:12;;;;;;;12.55;3.30;;;9.50;99.90;;;;;;5052031;28;20208;-67
2022/10/12 04:35:40;;;;;;;9.68;4.22;;;9.50;99.90;;;;;;5051862;28;20229;-68
2022/10/12 04:38:08;;;;;;;13.60;3.92;;;9.50;99.90;;;;;;5052210;28;20212;-68
2022/10/12 04:40:36;;;;;;;10.27;3.08;;;9.50;99.90;;;;;;5051535;28;20246;-68
2022/10/12 04:43:04;;;;;;;8.55;3.33;;;9.50;99.90;;;;;;5052189;28;20265;-68
2022/10/12 04:45:32;;;;;;;10.60;3.30;;;9.40;99.90;;;;;;5052153;28;20224;-68
2022/10/12 04:48:00;;;;;;;10.68;3.92;;;9.40;99.90;;;;;;5051823;28;20220;-68
2022/10/12 04:50:29;;;;;;;6.80;3.30;;;9.40;99.90;;;;;;5051106;28;20576;-68
2022/10/12 04:52:57;;;;;;;6.95;4.25;;;9.50;99.90;;;;;;5052209;28;20204;-68
2022/10/12 04:55:26;;;;;;;8.98;3.67;;;9.50;99.90;;;;;;5048685;28;20680;-68
2022/10/12 04:57:54;;;;;;;12.25;3.97;;;9.50;99.90;;;;;;5051834;28;20219;-68
2022/10/12 05:00:22;;;;;;;5.82;3.58;;;9.50;99.90;;;;;;5050074;28;20269;-68
2022/10/12 05:02:50;;;;;;;9.75;4.22;;;9.50;99.90;;;;;;5051621;28;20204;-68
2022/10/12 05:05:18;;;;;;;15.50;3.40;;;9.50;99.90;;;;;;5048927;28;20216;-68
2022/10/12 05:07:47;;;;;;;8.30;4.15;;;9.50;99.90;;;;;;5031896;28;20204;-68
2022/10/12 05:10:15;;;;;;;9.27;4.25;;;9.50;99.90;;;;;;5031265;28;20668;-68
2022/10/12 05:12:44;;;;;;;17.67;5.65;;;9.50;99.90;;;;;;5050795;28;20228;-68
2022/10/12 05:15:25;;;;;;;11.00;4.40;;;9.50;99.90;;;;;;5047858;28;20196;-68
2022/10/12 05:17:53;;;;;;;9.30;4.00;;;9.50;99.90;;;;;;5049976;28;20663;-68
2022/10/12 05:20:21;;;;;;;23.50;4.20;;;9.50;99.90;;;;;;5045966;28;20200;-68
2022/10/12 05:22:50;;;;;;;9.88;4.93;;;9.60;99.90;;;;;;5051552;28;20211;-68
2022/10/12 05:25:19;;;;;;;6.65;3.80;;;9.60;99.90;;;;;;5050263;28;20703;-68
2022/10/12 05:27:47;;;;;;;6.53;3.70;;;9.60;99.90;;;;;;5049890;28;20219;-68
2022/10/12 05:30:15;;;;;;;11.98;4.60;;;9.60;99.90;;;;;;5049604;28;20574;-68
2022/10/12 05:32:43;;;;;;;9.60;4.80;;;9.60;99.90;;;;;;5050220;28;20200;-68
2022/10/12 05:35:11;;;;;;;15.25;5.75;;;9.60;99.90;;;;;;5050629;28;20625;-68
2022/10/12 05:37:39;;;;;;;16.00;4.65;;;9.60;99.90;;;;;;5051002;28;20205;-67
2022/10/12 05:40:10;;;;;;;17.48;4.10;;;9.60;99.90;;;;;;5049676;28;20227;-68
2022/10/12 05:42:38;;;;;;;10.52;3.97;;;9.60;99.90;;;;;;5050870;28;20193;-67
2022/10/12 05:45:07;;;;;;;6.10;3.90;;;9.50;99.90;;;;;;5050246;28;20220;-68
2022/10/12 05:47:34;;;;;;;4.85;3.90;;;9.50;99.90;;;;;;5050643;28;20664;-67
2022/10/12 05:50:02;;;;;;;8.18;3.97;;;9.60;99.90;;;;;;5050860;28;20598;-68
2022/10/12 05:52:31;;;;;;;14.55;4.60;;;9.50;99.90;;;;;;5051722;28;20749;-66
2022/10/12 05:54:58;;;;;;;5.47;3.60;;;9.50;99.90;;;;;;5049066;28;20634;-67
2022/10/12 05:57:28;;;;;;;9.43;4.15;;;9.50;99.90;;;;;;5054901;28;20220;-67
2022/10/12 05:59:56;;;;;;;7.85;4.68;;;9.50;99.90;;;;;;5050892;28;21276;-67
2022/10/12 06:02:24;;;;;;;10.75;4.60;;;9.50;99.90;;;;;;5054902;28;20196;-67
2022/10/12 06:04:52;;;;;;;12.48;4.13;;;9.50;99.90;;;;;;5054104;28;20216;-67
2022/10/12 06:07:20;;;;;;;12.82;4.25;;;9.50;99.90;;;;;;5055413;28;20227;-66
2022/10/12 06:09:48;;;;;;;15.68;3.80;;;9.50;99.90;;;;;;5055406;28;20210;-66
2022/10/12 06:12:16;;;;;;;11.18;3.90;;;9.50;99.90;;;;;;5055264;28;20201;-66
2022/10/12 06:14:45;;;;;;;13.43;4.10;;;9.60;99.90;;;;;;5054670;28;20212;-66
2022/10/12 06:17:13;;;;;;;11.45;3.88;;;9.60;99.90;;;;;;5053991;28;20189;-67
2022/10/12 06:19:41;;;;;;;18.90;4.60;;;9.60;99.90;;;;;;5053651;28;20208;-66
2022/10/12 06:22:09;;;;;;;10.88;3.90;;;9.70;99.90;;;;;;5054381;28;20208;-66
2022/10/12 06:24:37;;;;;;;8.00;4.22;;;9.80;99.90;;;;;;5053041;28;20211;-66
2022/10/12 06:27:05;;;;;;;22.45;7.15;;;9.90;99.90;;;;;;5054238;28;20197;-68
2022/10/12 06:29:34;;;;;;;11.77;3.90;;;10.00;99.90;;;;;;5054037;28;20212;-68
2022/10/12 06:32:04;;;;;;;12.88;4.60;;;10.10;99.90;;;;;;5054606;28;20204;-67
2022/10/12 06:34:32;;;;;;;12.95;5.05;;;10.10;99.90;;;;;;5053932;28;20196;-67
2022/10/12 06:37:00;;;;;;;18.48;4.93;;;10.20;99.90;;;;;;5054096;28;20199;-67
2022/10/12 06:39:32;;;;;;;10.95;4.50;;;10.30;99.90;;;;;;5053809;28;20209;-67
2022/10/12 06:42:00;;;;;;;11.07;5.30;;;10.40;99.90;;;;;;5054317;28;20666;-67
2022/10/12 06:44:29;;;;;;;15.00;4.30;;;10.50;99.90;;;;;;5052813;28;20197;-67
2022/10/12 06:46:57;;;;;;;14.70;6.05;;;10.60;99.90;;;;;;5053739;28;20220;-67
2022/10/12 06:49:26;;;;;;;13.05;4.28;;;10.60;99.90;;;;;;5053982;28;20199;-71
2022/10/12 06:51:54;;;;;;;27.35;5.55;;;10.60;99.90;;;;;;5054114;28;20197;-67
2022/10/12 06:54:22;;;;;;;16.92;5.22;;;10.60;99.90;;;;;;5053554;28;20200;-67
2022/10/12 06:56:50;;;;;;;12.75;4.32;;;10.60;99.90;;;;;;5049281;28;20613;-67
2022/10/12 06:59:21;;;;;;;11.63;4.88;;;10.50;99.90;;;;;;5053664;28;20604;-67
2022/10/12 07:01:50;;;;;;;11.60;4.88;;;10.50;99.90;;;;;;5053155;28;20208;-68
2022/10/12 07:04:18;;;;;;;11.80;4.15;;;10.50;99.90;;;;;;5052508;28;20608;-67
2022/10/12 07:06:47;;;;;;;7.53;4.15;;;10.60;99.90;;;;;;5053588;28;20714;-67
2022/10/12 07:09:16;;;;;;;12.15;4.15;;;10.70;99.90;;;;;;5053571;28;20242;-66
2022/10/12 07:11:44;;;;;;;8.65;3.83;;;10.80;99.90;;;;;;5053520;28;20198;-67
2022/10/12 07:14:12;;;;;;;8.30;4.80;;;10.80;99.90;;;;;;5052402;28;20201;-67
2022/10/12 07:16:40;;;;;;;15.35;5.50;;;10.80;99.90;;;;;;5053291;28;20242;-67
2022/10/12 07:19:08;;;;;;;13.23;3.95;;;10.90;99.90;;;;;;5045007;28;20571;-67
2022/10/12 07:21:36;;;;;;;4.43;3.60;;;10.90;99.90;;;;;;5045860;28;20200;-66
2022/10/12 07:24:06;;;;;;;8.10;3.58;;;11.00;99.90;;;;;;5053227;28;20659;-66
2022/10/12 07:26:33;;;;;;;9.23;4.47;;;11.10;99.90;;;;;;5035057;28;20228;-66
2022/10/12 07:29:02;;;;;;;15.20;5.13;;;11.10;99.90;;;;;;5053842;28;20258;-66
2022/10/12 07:31:30;;;;;;;6.03;3.70;;;11.10;99.90;;;;;;5053050;28;20208;-66
2022/10/12 07:33:57;;;;;;;11.95;4.57;;;11.30;99.90;;;;;;5035778;28;20251;-67
2022/10/12 07:36:25;;;;;;;8.73;4.45;;;11.30;99.90;;;;;;5051744;28;20916;-66
2022/10/12 07:38:53;;;;;;;9.88;4.38;;;11.20;99.90;;;;;;5052526;28;20611;-66
2022/10/12 07:41:22;;;;;;;6.15;3.80;;;11.30;99.90;;;;;;5052760;28;20204;-66
2022/10/12 07:43:55;;;;;;;13.93;5.97;;;11.40;99.90;;;;;;5051421;28;20209;-66
2022/10/12 07:46:24;;;;;;;9.00;4.30;;;11.50;99.90;;;;;;5051567;28;20307;-66
2022/10/12 07:48:52;;;;;;;7.35;4.03;;;11.70;99.90;;;;;;5051756;28;20203;-64
2022/10/12 07:51:20;;;;;;;14.10;4.65;;;11.70;99.90;;;;;;5051912;28;20193;-65
2022/10/12 07:53:49;;;;;;;10.82;4.00;;;11.90;99.90;;;;;;5052817;28;20204;-64
2022/10/12 07:56:17;;;;;;;7.10;4.35;;;12.00;99.90;;;;;;5051812;28;20224;-65
2022/10/12 07:58:50;;;;;;;8.65;4.10;;;11.90;99.90;;;;;;5050919;28;20200;-65
2022/10/12 08:01:20;;;;;;;8.80;4.93;;;11.80;99.90;;;;;;5051094;28;20243;-65
2022/10/12 08:03:48;;;;;;;9.77;4.40;;;12.10;99.90;;;;;;5051813;28;20624;-65
2022/10/12 08:06:19;;;;;;;7.63;4.03;;;12.10;99.90;;;;;;5051688;28;21005;-65
2022/10/12 08:08:47;;;;;;;9.45;4.80;;;12.10;99.90;;;;;;5052249;28;20591;-66
2022/10/12 08:11:15;;;;;;;10.67;4.87;;;12.00;99.90;;;;;;5051155;28;20253;-65
2022/10/12 08:13:43;;;;;;;10.03;4.97;;;12.10;99.90;;;;;;5031842;28;20628;-64
2022/10/12 08:16:15;;;;;;;12.48;5.18;;;12.20;99.90;;;;;;5042870;28;20598;-64
2022/10/12 08:18:44;;;;;;;14.93;5.00;;;12.30;99.90;;;;;;5051497;28;20196;-64
2022/10/12 08:21:14;;;;;;;10.23;5.40;;;12.50;99.90;;;;;;5049885;28;20627;-64
2022/10/12 08:23:43;;;;;;;9.95;6.03;;;12.60;99.90;;;;;;5052056;28;20611;-64
2022/10/12 08:26:12;;;;;;;6.13;4.90;;;12.50;99.90;;;;;;5051779;28;20216;-64
2022/10/12 08:28:40;;;;;;;11.60;5.07;;;12.60;99.90;;;;;;5051379;28;20632;-65
2022/10/12 08:31:09;;;;;;;9.70;5.00;;;12.70;99.90;;;;;;5051633;28;21213;-64
2022/10/12 08:33:39;;;;;;;12.30;5.67;;;12.90;99.90;;;;;;5051624;28;20597;-65
2022/10/12 08:36:08;;;;;;;7.90;5.67;;;12.80;99.90;;;;;;5050829;28;20626;-65
2022/10/12 08:38:38;;;;;;;12.40;6.07;;;12.80;99.90;;;;;;5052236;28;20578;-65
2022/10/12 08:41:17;;;;;;;8.40;5.23;;;12.80;99.90;;;;;;5050943;28;20645;-65
2022/10/12 08:43:59;;;;;;;11.03;5.67;;;12.70;99.90;;;;;;5057289;28;20705;-67
2022/10/12 08:46:28;;;;;;;15.87;6.20;;;12.80;99.90;;;;;;5067199;28;20685;-67
2022/10/12 08:49:04;;;;;;;21.13;7.07;;;12.90;99.90;;;;;;5051930;28;20981;-67
2022/10/12 08:51:38;;;;;;;14.10;6.33;;;12.90;99.90;;;;;;5064554;28;20607;-67
2022/10/12 08:54:11;;;;;;;9.23;6.27;;;13.10;99.90;;;;;;5069207;28;20557;-67
2022/10/12 08:56:40;;;;;;;13.03;7.07;;;13.20;99.90;;;;;;5072209;28;20639;-67
2022/10/12 08:59:12;;;;;;;12.60;6.90;;;13.10;99.90;;;;;;5063548;28;21047;-68
2022/10/12 09:01:57;;;;;;;18.20;7.30;;;13.20;99.90;;;;;;5064199;28;20602;-68
2022/10/12 09:04:40;;;;;;;18.90;8.23;;;13.50;99.90;;;;;;5055254;28;21052;-67
2022/10/12 09:07:14;;;;;;;10.00;7.67;;;13.30;99.90;;;;;;5054747;28;21017;-68
2022/10/12 09:09:57;;;;;;;14.33;7.80;;;13.30;99.90;;;;;;5061297;28;20599;-67
2022/10/12 09:12:39;;;;;;;14.27;7.50;;;13.50;99.90;;;;;;5047286;28;20635;-67
2022/10/12 09:15:13;;;;;;;20.93;7.80;;;13.60;99.90;;;;;;5062154;28;20744;-68
2022/10/12 09:17:46;;;;;;;15.43;7.80;;;13.80;99.90;;;;;;5058887;28;21090;-67
2022/10/12 09:20:20;;;;;;;17.53;8.50;;;14.00;99.90;;;;;;5047614;28;20661;-67
2022/10/12 09:22:50;;;;;;;14.33;7.43;;;14.10;99.90;;;;;;5061722;28;20564;-66
2022/10/12 09:25:22;;;;;;;14.00;8.47;;;13.90;99.90;;;;;;5065518;28;20598;-67
2022/10/12 09:27:50;;;;;;;16.80;6.87;;;14.20;99.90;;;;;;5061716;28;21251;-66
2022/10/12 09:30:20;;;;;;;11.20;7.00;;;14.30;99.90;;;;;;5067585;28;20625;-68
2022/10/12 09:33:03;;;;;;;20.33;7.83;;;14.20;99.90;;;;;;5064674;28;20616;-68
2022/10/12 09:35:55;;;;;;;14.60;8.80;;;14.10;99.90;;;;;;5005029;28;20727;-67
2022/10/12 09:38:25;;;;;;;25.53;8.20;;;14.40;99.90;;;;;;5018356;28;20654;-68
2022/10/12 09:40:52;;;;;;;14.40;8.57;;;14.30;99.90;;;;;;5053801;28;20681;-67
2022/10/12 09:43:20;;;;;;;12.67;7.87;;;14.30;99.90;;;;;;5059683;28;20635;-67
2022/10/12 09:45:48;;;;;;;16.40;8.70;;;14.40;99.90;;;;;;5054607;28;20627;-67
2022/10/12 09:48:19;;;;;;;10.60;7.87;;;14.20;99.90;;;;;;5058757;28;20746;-66
2022/10/12 09:50:54;;;;;;;15.10;9.40;;;14.20;99.90;;;;;;5029130;28;20592;-67
2022/10/12 09:53:43;;;;;;;16.43;9.30;;;14.10;99.90;;;;;;5046754;28;20634;-68
2022/10/12 09:56:22;;;;;;;12.87;9.07;;;14.30;99.90;;;;;;5057101;28;20671;-66
2022/10/12 09:58:53;;;;;;;20.80;10.00;;;14.30;99.90;;;;;;5057030;28;20696;-67
2022/10/12 10:01:24;;;;;;;21.73;9.50;;;14.50;99.90;;;;;;5060245;28;20619;-66
2022/10/12 10:04:08;;;;;;;17.40;9.00;;;14.60;99.90;;;;;;5060179;28;20670;-66
2022/10/12 10:06:40;;;;;;;22.17;10.73;;;14.60;99.90;;;;;;5052774;28;20686;-66
2022/10/12 10:09:26;;;;;;;11.93;8.43;;;14.90;99.90;;;;;;5055054;28;20634;-66
2022/10/12 10:11:54;;;;;;;12.77;8.73;;;15.00;99.90;;;;;;5050166;28;21240;-66
2022/10/12 10:14:22;;;;;;;18.63;10.43;;;15.10;99.90;;;;;;5056438;28;21023;-67
2022/10/12 10:16:51;;;;;;;15.73;8.30;;;15.10;99.90;;;;;;5053949;28;20972;-66
2022/10/12 10:19:23;;;;;;;15.63;9.33;;;15.20;99.90;;;;;;5058678;28;21212;-66
2022/10/12 10:21:54;;;;;;;14.70;8.30;;;15.20;99.90;;;;;;5055891;28;21164;-66
2022/10/12 10:24:29;;;;;;;14.70;8.87;;;15.40;99.90;;;;;;5055129;28;20677;-66
2022/10/12 10:27:00;;;;;;;16.90;8.90;;;15.70;99.90;;;;;;5055711;28;20642;-65
2022/10/12 10:29:34;;;;;;;16.80;9.50;;;15.60;99.90;;;;;;5055987;28;20711;-66
2022/10/12 10:32:23;;;;;;;12.57;8.63;;;15.50;99.90;;;;;;5056470;28;20734;-66
2022/10/12 10:35:03;;;;;;;15.13;8.37;;;15.70;99.90;;;;;;5053881;28;20726;-66
2022/10/12 10:38:02;;;;;;;14.20;9.43;;;15.60;99.90;;;;;;5053945;28;20619;-66
2022/10/12 10:40:32;;;;;;;15.57;9.50;;;15.80;99.90;;;;;;5061612;28;21168;-66
2022/10/12 10:43:04;;;;;;;14.83;9.10;;;15.60;99.90;;;;;;5060453;28;20619;-66
2022/10/12 10:45:36;;;;;;;14.20;8.47;;;16.00;99.90;;;;;;5058359;28;20618;-67
2022/10/12 10:48:09;;;;;;;13.90;9.37;;;16.20;99.90;;;;;;5055017;28;20635;-66
2022/10/12 10:50:42;;;;;;;16.77;9.17;;;16.50;99.90;;;;;;5057689;28;20625;-67
2022/10/12 10:53:20;;;;;;;16.73;8.17;;;16.80;99.90;;;;;;5058764;28;20635;-68
2022/10/12 10:55:56;;;;;;;11.60;7.57;;;17.70;99.90;;;;;;5058450;28;20692;-66
2022/10/12 10:58:32;;;;;;;11.10;8.57;;;17.80;99.90;;;;;;5057061;28;20664;-67
2022/10/12 11:01:05;;;;;;;20.17;9.03;;;17.70;99.90;;;;;;5058705;28;20611;-67
2022/10/12 11:03:43;;;;;;;17.77;8.37;;;17.30;99.90;;;;;;5057434;28;21194;-67
2022/10/12 11:06:23;;;;;;;21.87;9.27;;;17.30;99.90;;;;;;5059692;28;20637;-67
2022/10/12 11:09:00;;;;;;;15.13;8.03;;;18.00;99.90;;;;;;5059826;28;20670;-66
2022/10/12 11:11:32;;;;;;;13.53;8.20;;;18.10;99.90;;;;;;5051583;28;20615;-67
2022/10/12 11:14:04;;;;;;;13.20;8.07;;;18.30;99.90;;;;;;5065141;28;20622;-66
2022/10/12 11:16:36;;;;;;;14.33;8.30;;;18.00;99.90;;;;;;5059146;28;20619;-66
2022/10/12 11:19:18;;;;;;;156.53;76.77;;;17.90;99.90;;;;;;5062371;28;20603;-67
2022/10/12 11:21:51;;;;;;;12.57;8.47;;;18.20;99.90;;;;;;5057235;28;20603;-66
2022/10/12 11:24:45;;;;;;;17.20;8.80;;;18.80;99.90;;;;;;5058882;28;20709;-67
2022/10/12 11:27:20;;;;;;;12.83;8.27;;;19.00;99.90;;;;;;5066930;28;20609;-67
2022/10/12 11:29:56;;;;;;;14.30;9.03;;;19.30;99.90;;;;;;5064595;28;20614;-67
2022/10/12 11:32:29;;;;;;;18.20;8.30;;;19.30;99.90;;;;;;5069432;28;20601;-67
2022/10/12 11:35:01;;;;;;;14.13;8.10;;;19.50;99.90;;;;;;5059948;28;20650;-66
2022/10/12 11:37:35;;;;;;;18.70;8.20;;;19.60;99.90;;;;;;5070960;28;20631;-67
2022/10/12 11:40:08;;;;;;;8.77;7.87;;;19.60;99.90;;;;;;5067568;28;20600;-67
2022/10/12 11:42:40;;;;;;;9.13;7.90;;;19.80;99.90;;;;;;5067264;28;20618;-67
2022/10/12 11:45:20;;;;;;;22.70;9.43;;;19.90;99.90;;;;;;5065674;28;20618;-67
2022/10/12 11:47:52;;;;;;;10.50;7.83;;;20.30;99.90;;;;;;5062833;28;20710;-67
2022/10/12 11:50:42;;;;;;;10.93;7.93;;;20.00;99.90;;;;;;5069123;28;20645;-67
2022/10/12 11:53:20;;;;;;;13.10;7.70;;;20.60;99.90;;;;;;5071346;28;21161;-67
2022/10/12 11:56:05;;;;;;;12.17;8.13;;;20.20;99.90;;;;;;5069785;28;21172;-66
2022/10/12 11:58:37;;;;;;;18.87;8.50;;;19.90;99.90;;;;;;5066373;28;20673;-67
2022/10/12 12:01:32;;;;;;;17.93;8.47;;;20.50;99.90;;;;;;5055067;28;20665;-66
2022/10/12 12:04:24;;;;;;;15.90;8.10;;;20.20;99.90;;;;;;5070960;28;20618;-66
2022/10/12 12:06:58;;;;;;;10.73;8.10;;;20.40;99.90;;;;;;5067978;28;20624;-67
2022/10/12 12:09:39;;;;;;;17.20;8.00;;;20.10;99.90;;;;;;5050404;28;20708;-67
2022/10/12 12:12:27;;;;;;;13.50;7.33;;;20.40;99.90;;;;;;5053156;28;20682;-67
2022/10/12 12:15:19;;;;;;;11.27;7.30;;;20.50;99.90;;;;;;5063208;28;20642;-67
2022/10/12 12:18:12;;;;;;;13.10;7.70;;;20.50;99.90;;;;;;5066553;28;20653;-67
2022/10/12 12:21:05;;;;;;;14.67;8.73;;;20.30;99.90;;;;;;5065227;28;20627;-67
2022/10/12 12:23:39;;;;;;;12.27;8.90;;;20.80;99.90;;;;;;5071647;28;20631;-67
2022/10/12 12:26:15;;;;;;;13.50;9.00;;;21.70;99.90;;;;;;5069838;28;20672;-67
2022/10/12 12:28:46;;;;;;;10.20;8.63;;;21.40;99.90;;;;;;5069925;28;20638;-67
2022/10/12 12:31:27;;;;;;;9.43;7.67;;;21.30;99.90;;;;;;5070487;28;20630;-66
2022/10/12 12:34:03;;;;;;;10.40;8.17;;;21.50;99.90;;;;;;5068117;28;21175;-66
2022/10/12 12:36:34;;;;;;;19.33;8.00;;;22.50;99.90;;;;;;5054802;28;20658;-66
2022/10/12 12:39:03;;;;;;;15.97;8.47;;;22.20;99.90;;;;;;5063543;28;20630;-66
2022/10/12 12:41:48;;;;;;;10.87;8.70;;;22.20;99.90;;;;;;5060922;28;20669;-66
2022/10/12 12:44:40;;;;;;;12.83;8.30;;;22.70;99.90;;;;;;5063292;28;20610;-66
2022/10/12 12:47:35;;;;;;;14.93;9.20;;;22.40;99.90;;;;;;5059987;28;20623;-66
2022/10/12 12:50:34;;;;;;;12.57;8.93;;;21.70;99.90;;;;;;5066678;28;20659;-66
2022/10/12 12:53:06;;;;;;;15.97;8.90;;;21.30;99.90;;;;;;5056025;28;20629;-66
2022/10/12 12:55:58;;;;;;;15.13;9.00;;;22.20;99.90;;;;;;5062328;28;20635;-66
2022/10/12 12:58:49;;;;;;;9.40;8.20;;;22.80;99.90;;;;;;5045281;28;21169;-67
2022/10/12 13:01:45;;;;;;;21.90;18.70;;;21.50;99.90;;;;;;5061631;28;20607;-67
2022/10/12 13:04:38;;;;;;;16.20;8.67;;;22.10;99.90;;;;;;5065419;28;20641;-66
2022/10/12 13:07:35;;;;;;;8.93;7.97;;;23.40;99.90;;;;;;5056479;28;20611;-66
2022/10/12 13:10:16;;;;;;;13.80;7.87;;;24.20;99.90;;;;;;5024421;28;20670;-68
2022/10/12 13:13:16;;;;;;;14.13;9.50;;;23.40;99.90;;;;;;5055371;28;20690;-67